createdAt,value
2022-09-09T00:05:20.112Z,18.67
2022-09-09T00:11:31.553Z,23.63
2022-09-09T00:17:52.249Z,20.60
2022-09-09T00:23:57.443Z,21.37
2022-09-09T00:30:05.508Z,17.30
2022-09-09T00:36:16.872Z,14.53
2022-09-09T00:42:24.625Z,14.07
2022-09-09T00:48:39.137Z,19.87
2022-09-09T00:54:49.987Z,15.83
2022-09-09T01:00:59.037Z,16.37
2022-09-09T01:07:18.943Z,17.60
2022-09-09T01:13:28.192Z,17.77
2022-09-09T01:19:45.147Z,12.43
2022-09-09T01:26:05.470Z,29.80
2022-09-09T01:32:43.508Z,18.53
2022-09-09T01:38:45.424Z,13.63
2022-09-09T01:44:47.294Z,23.67
2022-09-09T01:50:49.085Z,18.27
2022-09-09T01:57:24.315Z,22.67
2022-09-09T02:03:30.021Z,19.60
2022-09-09T02:09:31.827Z,17.27
2022-09-09T02:15:40.445Z,16.43
2022-09-09T02:21:45.217Z,19.27
2022-09-09T02:27:50.098Z,22.97
2022-09-09T02:34:03.471Z,22.53
2022-09-09T02:40:07.564Z,20.83
2022-09-09T02:46:25.126Z,21.30
2022-09-09T02:52:38.822Z,24.93
2022-09-09T02:58:41.331Z,16.70
2022-09-09T03:04:45.601Z,32.63
2022-09-09T03:10:47.355Z,19.77
2022-09-09T03:16:49.630Z,26.47
2022-09-09T03:22:51.795Z,24.07
2022-09-09T03:29:23.812Z,21.60
2022-09-09T03:35:31.663Z,18.30
2022-09-09T03:41:46.474Z,19.53
2022-09-09T03:47:57.518Z,24.43
2022-09-09T03:54:13.786Z,24.73
2022-09-09T04:00:16.467Z,41.63
2022-09-09T04:06:47.833Z,27.07
2022-09-09T04:12:56.567Z,26.53
2022-09-09T04:19:12.946Z,32.10
2022-09-09T04:25:21.214Z,28.30
2022-09-09T04:31:36.911Z,25.07
2022-09-09T04:37:38.867Z,22.40
2022-09-09T04:43:40.977Z,24.53
2022-09-09T04:49:42.724Z,17.57
2022-09-09T04:55:44.541Z,35.70
2022-09-09T05:01:46.842Z,23.97
2022-09-09T05:07:54.329Z,24.10
2022-09-09T05:13:56.130Z,24.13
2022-09-09T05:19:58.059Z,26.50
2022-09-09T05:25:59.870Z,21.30
2022-09-09T05:32:01.933Z,17.67
2022-09-09T05:52:57.557Z,14.07
2022-09-09T05:59:01.306Z,17.80
2022-09-09T06:05:03.028Z,26.70
2022-09-09T06:11:09.322Z,29.03
2022-09-09T06:17:11.480Z,22.57
2022-09-09T06:23:16.180Z,27.87
2022-09-09T06:29:17.966Z,48.93
2022-09-09T06:35:19.823Z,30.10
2022-09-09T06:41:23.604Z,30.27
2022-09-09T06:47:25.830Z,35.33
2022-09-09T06:53:28.536Z,24.70
2022-09-09T06:59:31.975Z,38.13
2022-09-09T07:05:33.721Z,39.10
2022-09-09T07:11:44.022Z,29.23
2022-09-09T07:17:46.132Z,26.27
2022-09-09T07:23:47.869Z,31.43
2022-09-09T07:29:49.846Z,26.73
2022-09-09T07:35:52.623Z,41.20
2022-09-09T07:41:55.786Z,69.53
2022-09-09T07:47:58.012Z,60.20
2022-09-09T07:54:10.406Z,55.73
2022-09-09T08:00:12.992Z,36.50
2022-09-09T08:06:15.029Z,35.80
2022-09-09T08:12:17.716Z,27.00
2022-09-09T08:18:19.475Z,27.90
2022-09-09T08:24:21.239Z,30.70
2022-09-09T08:30:23.025Z,40.67
2022-09-09T08:36:27.214Z,37.43
2022-09-09T08:42:49.729Z,26.10
2022-09-09T08:49:29.344Z,25.23
2022-09-09T09:02:17.077Z,35.40
2022-09-09T09:08:46.393Z,31.67
2022-09-09T09:14:51.844Z,25.53
2022-09-09T09:21:14.407Z,35.57
2022-09-09T09:27:32.265Z,40.93
2022-09-09T09:33:41.696Z,37.53
2022-09-09T09:46:17.153Z,29.97
2022-09-09T09:52:25.078Z,37.90
2022-09-09T09:58:47.541Z,33.53
2022-09-09T10:04:50.853Z,32.80
2022-09-09T10:11:28.225Z,31.60
2022-09-09T10:24:20.887Z,27.70
2022-09-09T10:30:36.523Z,40.67
2022-09-09T10:36:47.775Z,32.10
2022-09-09T10:42:49.607Z,29.07
2022-09-09T10:49:09.529Z,35.83
2022-09-09T10:55:46.324Z,29.80
2022-09-09T11:02:26.407Z,32.77
2022-09-09T11:08:31.048Z,28.73
2022-09-09T11:14:55.590Z,31.07
2022-09-09T11:21:04.838Z,32.90
2022-09-09T11:27:24.636Z,28.73
2022-09-09T11:34:00.617Z,34.37
2022-09-09T11:40:23.900Z,32.70
2022-09-09T11:46:36.642Z,31.43
2022-09-09T11:52:46.896Z,39.10
2022-09-09T11:59:03.204Z,31.20
2022-09-09T12:05:11.290Z,27.73
2022-09-09T12:11:24.631Z,35.33
2022-09-09T12:17:30.842Z,24.70
2022-09-09T12:30:16.251Z,26.20
2022-09-09T12:36:31.800Z,26.88
2022-09-09T12:42:58.109Z,27.70
2022-09-09T12:49:00.178Z,30.10
2022-09-09T12:55:04.920Z,30.60
2022-09-09T13:01:21.715Z,27.40
2022-09-09T13:07:29.736Z,28.27
2022-09-09T13:13:44.704Z,24.10
2022-09-09T13:19:47.523Z,31.10
2022-09-09T13:32:22.284Z,28.83
2022-09-09T13:38:27.646Z,28.42
2022-09-09T13:58:06.442Z,31.60
2022-09-09T14:29:45.536Z,32.83
2022-09-09T14:42:04.167Z,25.45
2022-09-09T14:48:06.104Z,25.60
2022-09-09T14:54:07.840Z,28.50
2022-09-09T15:00:11.670Z,24.15
2022-09-09T15:06:17.757Z,19.08
2022-09-09T15:12:20.166Z,18.55
2022-09-09T15:18:22.853Z,15.63
2022-09-09T15:24:24.616Z,15.88
2022-09-09T15:30:26.354Z,16.85
2022-09-09T15:36:49.804Z,19.53
2022-09-09T15:42:53.865Z,21.90
2022-09-09T15:49:11.621Z,18.38
2022-09-09T15:55:13.561Z,32.90
2022-09-09T16:01:16.614Z,22.00
2022-09-09T16:07:18.647Z,17.85
2022-09-09T16:13:20.577Z,19.97
2022-09-09T16:19:22.600Z,15.93
2022-09-09T16:25:24.372Z,17.52
2022-09-09T16:31:28.357Z,21.88
2022-09-09T16:37:30.552Z,19.80
2022-09-09T16:43:33.773Z,18.05
2022-09-09T16:49:35.617Z,19.67
2022-09-09T16:55:41.956Z,23.63
2022-09-09T17:01:45.955Z,23.80
2022-09-09T17:07:47.715Z,31.03
2022-09-09T17:13:49.427Z,25.33
2022-09-09T17:19:51.647Z,34.03
2022-09-09T17:26:01.173Z,26.93
2022-09-09T17:32:04.434Z,20.80
2022-09-09T17:38:06.800Z,21.57
2022-09-09T17:44:10.901Z,25.40
2022-09-09T17:50:13.890Z,30.00
2022-09-09T17:56:18.396Z,29.40
2022-09-09T18:02:20.405Z,23.10
2022-09-09T18:08:22.402Z,23.30
2022-09-09T18:14:31.256Z,28.00
2022-09-09T18:20:33.992Z,31.63
2022-09-09T18:26:38.906Z,28.77
2022-09-09T18:32:41.527Z,27.53
2022-09-09T18:38:43.975Z,26.67
2022-09-09T18:44:45.748Z,24.53
2022-09-09T18:50:47.638Z,27.57
2022-09-09T18:56:50.021Z,28.67
2022-09-09T19:02:53.066Z,24.63
2022-09-09T19:09:02.869Z,33.63
2022-09-09T19:15:05.795Z,30.37
2022-09-09T19:21:12.187Z,25.70
2022-09-09T19:27:14.041Z,34.43
2022-09-09T19:33:15.752Z,31.20
2022-09-09T19:39:18.470Z,29.93
2022-09-09T19:45:20.397Z,33.30
2022-09-09T19:51:23.457Z,32.53
2022-09-09T19:57:28.722Z,36.50
2022-09-09T20:03:30.623Z,36.83
2022-09-09T20:09:32.485Z,29.70
2022-09-09T20:15:34.371Z,31.70
2022-09-09T20:21:39.460Z,47.83
2022-09-09T20:27:48.723Z,30.73
2022-09-09T20:33:56.436Z,34.23
2022-09-09T20:39:58.767Z,25.07
2022-09-09T20:46:04.753Z,28.40
2022-09-09T20:52:07.121Z,24.37
2022-09-09T20:58:09.317Z,27.93
2022-09-09T21:04:11.175Z,29.83
2022-09-09T21:10:13.757Z,27.07
2022-09-09T21:16:21.491Z,27.40
2022-09-09T21:22:23.373Z,29.80
2022-09-09T21:28:28.541Z,31.97
2022-09-09T21:34:30.536Z,25.67
2022-09-09T21:40:32.424Z,28.20
2022-09-09T21:46:34.175Z,30.03
2022-09-09T21:52:36.963Z,26.23
2022-09-09T21:58:41.103Z,29.43
2022-09-09T22:04:43.545Z,30.83
2022-09-09T22:10:46.816Z,35.20
2022-09-09T22:16:48.529Z,36.97
2022-09-09T22:22:50.332Z,32.63
2022-09-09T22:28:54.063Z,39.67
2022-09-09T22:34:55.876Z,32.13
2022-09-09T22:40:58.367Z,39.47
2022-09-09T22:47:01.357Z,43.90
2022-09-09T22:53:04.462Z,34.50
2022-09-09T22:59:06.653Z,40.40
2022-09-09T23:05:08.961Z,36.50
2022-09-09T23:11:12.403Z,33.17
2022-09-09T23:17:18.821Z,33.53
2022-09-09T23:23:20.665Z,35.77
2022-09-09T23:29:22.446Z,36.73
2022-09-09T23:35:24.212Z,40.20
2022-09-09T23:41:27.224Z,40.03
2022-09-09T23:47:29.020Z,28.33
2022-09-09T23:53:31.341Z,33.33
2022-09-09T23:59:35.112Z,43.50
